Pope Air Force Base
KPOB : now visible

Airfield :











YOU CAN JOIN US ON...

 
LOGIN :

Register | Disclaimer

   EN    FR    IT 

 









Legend :    VFR   Marginal VFR   IFR   Intensive IFR   Very Intensive IFR
Visi :
Ceiling :
>= 8 km
>= 3000ft
5 to 8 km
1000 to 3000 ft
1500m to 5 km
500 to 1000 ft
800 to 1500m
200 to 500 ft
< 800m
< 200 ft
Symbols :   Thunderstorms  Fog  Heavy snow  Heavy precipitations  Wind > 20 kt






- Airport Elevation : 217 ft


KPOB - Pope Air Force Base

CURRENT METAR :
  • 090356Z AUTO 08003KT 10SM FEW100 12/09 A3007 RMK AO2 SLP185 T01150091 $

EXPIRED METARs :
  • 090256Z AUTO 00000KT 10SM CLR 13/09 A3006 RMK AO2 SLP182 T01310093 52030 $
  • 090240Z AUTO 00000KT 10SM CLR 14/10 A3006 RMK AO2 SLP181 52029 $
  • 090156Z AUTO 00000KT 10SM CLR 14/10 A3004 RMK AO2 SLP175 T01430097 $
  • 090128Z AUTO 00000KT 10SM CLR 16/09 A3002 RMK AO2 SLP168 $

TAF TAF KPOB
Valid from the 09 at 01:00 until the 10 at 07:00 UTC


090110Z 0901/1007 27006KT 9999 SCT100 QNH3000INS
BECMG 0908/0909 06005KT 9999 SCT050 BKN100 QNH3005INS
BECMG 0913/0914 16012G18KT 9999 SCT060 BKN120 QNH3000INS
BECMG 0916/0917 23018G30KT 9999 SCT080 BKN120 BKN250 QNH2993INS
BECMG 0923/0924 19010G15KT 9999 SCT030 BKN080 BKN200 QNH2990INS TX26/0920Z TN08/0910Z
KZDC FIR / North America



MET'MAP, your aeronautical weather chart ! - Copyright ORBIFLY December 2007 - Disclaimer

ORBIFLY MET'MAP TEAM :

Programming & Development : Alexandra Zaïnal
Concept & original design : Baudouin d'Aumeries
Assistance for programming : Marc-Olivier Méhu
Technical & hardware support : Manuel Goepfert

Contact : metmap@orbifly.com




SOURCES & CREDITS :

   NOAA       Earth
Advisory